sensor_id;sensor_type;location;lat;lon;timestamp;P1;durP1;ratioP1;P2;durP2;ratioP2
38629;SDS011;24384;51.988;4.644;2023-08-08T00:01:43;16.20;;;3.45;;
38629;SDS011;24384;51.988;4.644;2023-08-08T00:04:09;14.18;;;3.45;;
38629;SDS011;24384;51.988;4.644;2023-08-08T00:06:35;13.85;;;3.33;;
38629;SDS011;24384;51.988;4.644;2023-08-08T00:09:01;22.77;;;4.70;;
38629;SDS011;24384;51.988;4.644;2023-08-08T00:11:26;15.45;;;3.28;;
38629;SDS011;24384;51.988;4.644;2023-08-08T00:13:52;21.02;;;4.60;;
38629;SDS011;24384;51.988;4.644;2023-08-08T00:16:18;15.55;;;4.10;;
38629;SDS011;24384;51.988;4.644;2023-08-08T00:18:43;15.02;;;3.10;;
38629;SDS011;24384;51.988;4.644;2023-08-08T00:21:08;16.48;;;4.40;;
38629;SDS011;24384;51.988;4.644;2023-08-08T00:23:34;19.45;;;3.65;;
38629;SDS011;24384;51.988;4.644;2023-08-08T00:25:59;16.83;;;3.30;;
38629;SDS011;24384;51.988;4.644;2023-08-08T00:28:25;17.60;;;3.22;;
38629;SDS011;24384;51.988;4.644;2023-08-08T00:30:51;14.65;;;3.72;;
38629;SDS011;24384;51.988;4.644;2023-08-08T00:33:16;16.65;;;4.88;;
38629;SDS011;24384;51.988;4.644;2023-08-08T00:35:41;13.40;;;3.17;;
38629;SDS011;24384;51.988;4.644;2023-08-08T00:38:07;22.70;;;4.00;;
38629;SDS011;24384;51.988;4.644;2023-08-08T00:40:32;12.48;;;2.92;;
38629;SDS011;24384;51.988;4.644;2023-08-08T00:42:57;16.98;;;3.60;;
38629;SDS011;24384;51.988;4.644;2023-08-08T00:45:22;15.07;;;3.05;;
38629;SDS011;24384;51.988;4.644;2023-08-08T00:47:48;13.23;;;3.05;;
38629;SDS011;24384;51.988;4.644;2023-08-08T00:50:14;15.00;;;3.45;;
38629;SDS011;24384;51.988;4.644;2023-08-08T00:52:41;11.45;;;2.60;;
38629;SDS011;24384;51.988;4.644;2023-08-08T00:55:08;12.38;;;2.83;;
38629;SDS011;24384;51.988;4.644;2023-08-08T00:57:34;20.88;;;3.13;;
38629;SDS011;24384;51.988;4.644;2023-08-08T01:00:06;9.52;;;2.53;;
38629;SDS011;24384;51.988;4.644;2023-08-08T01:02:34;12.32;;;2.90;;
38629;SDS011;24384;51.988;4.644;2023-08-08T01:04:59;14.80;;;2.80;;
38629;SDS011;24384;51.988;4.644;2023-08-08T01:07:29;13.40;;;2.42;;
38629;SDS011;24384;51.988;4.644;2023-08-08T01:10:03;6.15;;;2.55;;
38629;SDS011;24384;51.988;4.644;2023-08-08T01:12:34;11.77;;;2.63;;
38629;SDS011;24384;51.988;4.644;2023-08-08T01:15:05;9.45;;;2.83;;
38629;SDS011;24384;51.988;4.644;2023-08-08T01:17:33;10.68;;;2.33;;
38629;SDS011;24384;51.988;4.644;2023-08-08T01:20:00;10.80;;;3.13;;
38629;SDS011;24384;51.988;4.644;2023-08-08T01:22:27;5.85;;;2.65;;
38629;SDS011;24384;51.988;4.644;2023-08-08T01:25:17;11.65;;;2.38;;
38629;SDS011;24384;51.988;4.644;2023-08-08T01:27:43;6.65;;;2.10;;
38629;SDS011;24384;51.988;4.644;2023-08-08T01:30:09;9.63;;;2.53;;
38629;SDS011;24384;51.988;4.644;2023-08-08T01:32:35;4.70;;;2.00;;
38629;SDS011;24384;51.988;4.644;2023-08-08T01:35:00;9.55;;;2.35;;
38629;SDS011;24384;51.988;4.644;2023-08-08T01:37:29;7.70;;;2.20;;
38629;SDS011;24384;51.988;4.644;2023-08-08T01:39:59;6.93;;;2.17;;
38629;SDS011;24384;51.988;4.644;2023-08-08T01:42:25;8.70;;;2.75;;
38629;SDS011;24384;51.988;4.644;2023-08-08T01:44:52;7.60;;;2.85;;
38629;SDS011;24384;51.988;4.644;2023-08-08T01:47:19;12.32;;;2.40;;
38629;SDS011;24384;51.988;4.644;2023-08-08T01:49:44;10.00;;;1.90;;
38629;SDS011;24384;51.988;4.644;2023-08-08T01:52:09;6.25;;;1.90;;
38629;SDS011;24384;51.988;4.644;2023-08-08T01:54:35;6.50;;;2.22;;
38629;SDS011;24384;51.988;4.644;2023-08-08T01:57:00;6.07;;;2.28;;
38629;SDS011;24384;51.988;4.644;2023-08-08T01:59:25;8.75;;;2.03;;
38629;SDS011;24384;51.988;4.644;2023-08-08T02:01:50;6.07;;;1.92;;
38629;SDS011;24384;51.988;4.644;2023-08-08T02:04:16;5.45;;;2.00;;
38629;SDS011;24384;51.988;4.644;2023-08-08T02:06:41;6.68;;;2.22;;
38629;SDS011;24384;51.988;4.644;2023-08-08T02:09:06;6.07;;;2.00;;
38629;SDS011;24384;51.988;4.644;2023-08-08T02:11:32;5.88;;;1.95;;
38629;SDS011;24384;51.988;4.644;2023-08-08T02:13:57;6.22;;;2.42;;
38629;SDS011;24384;51.988;4.644;2023-08-08T02:16:22;4.93;;;1.88;;
38629;SDS011;24384;51.988;4.644;2023-08-08T02:18:47;3.33;;;1.83;;
38629;SDS011;24384;51.988;4.644;2023-08-08T02:21:13;10.20;;;1.92;;
38629;SDS011;24384;51.988;4.644;2023-08-08T02:23:38;4.60;;;2.08;;
38629;SDS011;24384;51.988;4.644;2023-08-08T02:26:03;4.28;;;1.70;;
38629;SDS011;24384;51.988;4.644;2023-08-08T02:28:29;5.85;;;2.35;;
38629;SDS011;24384;51.988;4.644;2023-08-08T02:30:54;5.68;;;2.05;;
38629;SDS011;24384;51.988;4.644;2023-08-08T02:33:20;8.05;;;2.10;;
38629;SDS011;24384;51.988;4.644;2023-08-08T02:35:45;9.38;;;1.90;;
38629;SDS011;24384;51.988;4.644;2023-08-08T02:38:10;5.10;;;1.50;;
38629;SDS011;24384;51.988;4.644;2023-08-08T02:40:35;3.30;;;1.70;;
38629;SDS011;24384;51.988;4.644;2023-08-08T02:43:01;4.32;;;1.90;;
38629;SDS011;24384;51.988;4.644;2023-08-08T02:45:26;6.95;;;1.73;;
38629;SDS011;24384;51.988;4.644;2023-08-08T02:47:51;2.70;;;1.38;;
38629;SDS011;24384;51.988;4.644;2023-08-08T02:50:16;7.03;;;1.70;;
38629;SDS011;24384;51.988;4.644;2023-08-08T02:52:42;8.88;;;2.28;;
38629;SDS011;24384;51.988;4.644;2023-08-08T02:55:08;3.83;;;1.60;;
38629;SDS011;24384;51.988;4.644;2023-08-08T02:57:33;5.25;;;1.60;;
38629;SDS011;24384;51.988;4.644;2023-08-08T02:59:58;4.53;;;1.80;;
38629;SDS011;24384;51.988;4.644;2023-08-08T03:02:24;7.43;;;2.10;;
38629;SDS011;24384;51.988;4.644;2023-08-08T03:04:49;9.55;;;2.30;;
38629;SDS011;24384;51.988;4.644;2023-08-08T03:07:14;5.50;;;1.67;;
38629;SDS011;24384;51.988;4.644;2023-08-08T03:09:40;4.47;;;1.45;;
38629;SDS011;24384;51.988;4.644;2023-08-08T03:12:05;8.80;;;2.28;;
38629;SDS011;24384;51.988;4.644;2023-08-08T03:14:31;5.05;;;1.98;;
38629;SDS011;24384;51.988;4.644;2023-08-08T03:16:56;2.50;;;1.17;;
38629;SDS011;24384;51.988;4.644;2023-08-08T03:19:21;6.10;;;1.60;;
38629;SDS011;24384;51.988;4.644;2023-08-08T03:21:46;7.80;;;3.05;;
38629;SDS011;24384;51.988;4.644;2023-08-08T03:24:12;9.88;;;2.35;;
38629;SDS011;24384;51.988;4.644;2023-08-08T03:26:37;3.65;;;1.45;;
38629;SDS011;24384;51.988;4.644;2023-08-08T03:29:02;4.75;;;1.80;;
38629;SDS011;24384;51.988;4.644;2023-08-08T03:31:29;8.02;;;1.45;;
38629;SDS011;24384;51.988;4.644;2023-08-08T03:33:54;4.10;;;1.60;;
38629;SDS011;24384;51.988;4.644;2023-08-08T03:36:19;4.53;;;1.30;;
38629;SDS011;24384;51.988;4.644;2023-08-08T03:38:45;3.65;;;1.40;;
38629;SDS011;24384;51.988;4.644;2023-08-08T03:41:11;5.10;;;1.38;;
38629;SDS011;24384;51.988;4.644;2023-08-08T03:43:37;7.93;;;1.20;;
38629;SDS011;24384;51.988;4.644;2023-08-08T03:46:03;7.53;;;1.85;;
38629;SDS011;24384;51.988;4.644;2023-08-08T03:48:29;6.25;;;1.38;;
38629;SDS011;24384;51.988;4.644;2023-08-08T03:50:55;9.18;;;1.55;;
38629;SDS011;24384;51.988;4.644;2023-08-08T03:53:20;6.18;;;1.42;;
38629;SDS011;24384;51.988;4.644;2023-08-08T03:55:45;6.60;;;1.20;;
38629;SDS011;24384;51.988;4.644;2023-08-08T03:58:10;5.43;;;1.40;;
38629;SDS011;24384;51.988;4.644;2023-08-08T04:00:36;4.47;;;1.20;;
38629;SDS011;24384;51.988;4.644;2023-08-08T04:03:04;3.75;;;1.13;;
38629;SDS011;24384;51.988;4.644;2023-08-08T04:05:29;4.25;;;1.10;;
38629;SDS011;24384;51.988;4.644;2023-08-08T04:07:55;7.55;;;1.20;;
38629;SDS011;24384;51.988;4.644;2023-08-08T04:10:20;4.65;;;1.38;;
38629;SDS011;24384;51.988;4.644;2023-08-08T04:12:45;3.42;;;1.30;;
38629;SDS011;24384;51.988;4.644;2023-08-08T04:15:10;5.22;;;1.33;;
38629;SDS011;24384;51.988;4.644;2023-08-08T04:17:36;3.22;;;1.20;;
38629;SDS011;24384;51.988;4.644;2023-08-08T04:20:02;4.10;;;1.45;;
38629;SDS011;24384;51.988;4.644;2023-08-08T04:22:28;3.13;;;1.02;;
38629;SDS011;24384;51.988;4.644;2023-08-08T04:24:53;5.15;;;1.35;;
38629;SDS011;24384;51.988;4.644;2023-08-08T04:27:18;6.07;;;1.60;;
38629;SDS011;24384;51.988;4.644;2023-08-08T04:29:43;3.05;;;1.90;;
38629;SDS011;24384;51.988;4.644;2023-08-08T04:32:09;5.03;;;1.45;;
38629;SDS011;24384;51.988;4.644;2023-08-08T04:34:34;3.08;;;1.35;;
38629;SDS011;24384;51.988;4.644;2023-08-08T04:36:59;6.32;;;1.38;;
38629;SDS011;24384;51.988;4.644;2023-08-08T04:39:24;5.15;;;1.83;;
38629;SDS011;24384;51.988;4.644;2023-08-08T04:41:50;9.00;;;1.90;;
38629;SDS011;24384;51.988;4.644;2023-08-08T04:44:15;6.50;;;1.35;;
38629;SDS011;24384;51.988;4.644;2023-08-08T04:46:40;5.60;;;2.58;;
38629;SDS011;24384;51.988;4.644;2023-08-08T04:49:06;3.40;;;1.13;;
38629;SDS011;24384;51.988;4.644;2023-08-08T04:51:31;5.88;;;2.00;;
38629;SDS011;24384;51.988;4.644;2023-08-08T04:53:56;3.38;;;1.23;;
38629;SDS011;24384;51.988;4.644;2023-08-08T04:56:21;3.30;;;1.10;;
38629;SDS011;24384;51.988;4.644;2023-08-08T04:58:47;2.40;;;1.00;;
38629;SDS011;24384;51.988;4.644;2023-08-08T05:01:12;4.13;;;1.30;;
38629;SDS011;24384;51.988;4.644;2023-08-08T05:03:40;4.53;;;1.30;;
38629;SDS011;24384;51.988;4.644;2023-08-08T05:06:05;3.50;;;1.50;;
38629;SDS011;24384;51.988;4.644;2023-08-08T05:08:30;3.45;;;1.15;;
38629;SDS011;24384;51.988;4.644;2023-08-08T05:10:56;3.85;;;1.02;;
38629;SDS011;24384;51.988;4.644;2023-08-08T05:13:21;3.63;;;1.38;;
38629;SDS011;24384;51.988;4.644;2023-08-08T05:15:46;9.60;;;1.50;;
38629;SDS011;24384;51.988;4.644;2023-08-08T05:18:11;7.13;;;1.38;;
38629;SDS011;24384;51.988;4.644;2023-08-08T05:20:37;20.70;;;3.42;;
38629;SDS011;24384;51.988;4.644;2023-08-08T05:23:02;5.32;;;1.73;;
38629;SDS011;24384;51.988;4.644;2023-08-08T05:25:27;6.43;;;1.25;;
38629;SDS011;24384;51.988;4.644;2023-08-08T05:27:52;4.70;;;1.48;;
38629;SDS011;24384;51.988;4.644;2023-08-08T05:30:18;4.70;;;1.67;;
38629;SDS011;24384;51.988;4.644;2023-08-08T05:32:43;2.92;;;1.42;;
38629;SDS011;24384;51.988;4.644;2023-08-08T05:35:09;3.67;;;1.33;;
38629;SDS011;24384;51.988;4.644;2023-08-08T05:37:34;5.70;;;1.58;;
38629;SDS011;24384;51.988;4.644;2023-08-08T05:39:59;7.80;;;1.50;;
38629;SDS011;24384;51.988;4.644;2023-08-08T05:42:24;7.78;;;1.40;;
38629;SDS011;24384;51.988;4.644;2023-08-08T05:44:50;4.88;;;1.48;;
38629;SDS011;24384;51.988;4.644;2023-08-08T05:47:15;4.15;;;1.48;;
38629;SDS011;24384;51.988;4.644;2023-08-08T05:49:41;8.48;;;1.40;;
38629;SDS011;24384;51.988;4.644;2023-08-08T05:52:07;4.45;;;1.20;;
38629;SDS011;24384;51.988;4.644;2023-08-08T05:54:33;5.78;;;2.17;;
38629;SDS011;24384;51.988;4.644;2023-08-08T05:56:58;4.00;;;0.90;;
38629;SDS011;24384;51.988;4.644;2023-08-08T05:59:24;3.45;;;1.50;;
38629;SDS011;24384;51.988;4.644;2023-08-08T06:01:49;4.18;;;1.17;;
38629;SDS011;24384;51.988;4.644;2023-08-08T06:04:15;4.88;;;1.17;;
38629;SDS011;24384;51.988;4.644;2023-08-08T06:06:40;2.58;;;0.85;;
38629;SDS011;24384;51.988;4.644;2023-08-08T06:09:06;5.53;;;1.10;;
38629;SDS011;24384;51.988;4.644;2023-08-08T06:11:33;4.28;;;1.00;;
38629;SDS011;24384;51.988;4.644;2023-08-08T06:13:59;6.45;;;0.93;;
38629;SDS011;24384;51.988;4.644;2023-08-08T06:16:24;4.03;;;0.80;;
38629;SDS011;24384;51.988;4.644;2023-08-08T06:18:50;6.53;;;1.10;;
38629;SDS011;24384;51.988;4.644;2023-08-08T06:21:15;1.65;;;0.95;;
38629;SDS011;24384;51.988;4.644;2023-08-08T06:23:40;2.38;;;0.90;;
38629;SDS011;24384;51.988;4.644;2023-08-08T06:26:05;3.20;;;0.77;;
38629;SDS011;24384;51.988;4.644;2023-08-08T06:28:31;5.28;;;1.05;;
38629;SDS011;24384;51.988;4.644;2023-08-08T06:30:57;4.43;;;1.10;;
38629;SDS011;24384;51.988;4.644;2023-08-08T06:33:23;6.43;;;1.15;;
38629;SDS011;24384;51.988;4.644;2023-08-08T06:35:48;4.53;;;1.10;;
38629;SDS011;24384;51.988;4.644;2023-08-08T06:38:13;2.42;;;0.85;;
38629;SDS011;24384;51.988;4.644;2023-08-08T06:40:39;3.58;;;1.27;;
38629;SDS011;24384;51.988;4.644;2023-08-08T06:43:04;2.92;;;0.85;;
38629;SDS011;24384;51.988;4.644;2023-08-08T06:45:29;4.20;;;1.08;;
38629;SDS011;24384;51.988;4.644;2023-08-08T06:47:55;5.18;;;1.00;;
38629;SDS011;24384;51.988;4.644;2023-08-08T06:50:20;2.53;;;0.70;;
38629;SDS011;24384;51.988;4.644;2023-08-08T06:52:45;4.82;;;0.75;;
38629;SDS011;24384;51.988;4.644;2023-08-08T06:55:10;3.03;;;0.80;;
38629;SDS011;24384;51.988;4.644;2023-08-08T06:57:36;4.65;;;1.33;;
38629;SDS011;24384;51.988;4.644;2023-08-08T07:00:02;3.30;;;0.98;;
38629;SDS011;24384;51.988;4.644;2023-08-08T07:02:30;3.42;;;0.85;;
38629;SDS011;24384;51.988;4.644;2023-08-08T07:04:55;3.55;;;0.70;;
38629;SDS011;24384;51.988;4.644;2023-08-08T07:07:20;2.17;;;0.70;;
38629;SDS011;24384;51.988;4.644;2023-08-08T07:09:46;4.13;;;0.82;;
38629;SDS011;24384;51.988;4.644;2023-08-08T07:12:13;7.47;;;1.90;;
38629;SDS011;24384;51.988;4.644;2023-08-08T07:14:38;5.10;;;0.85;;
38629;SDS011;24384;51.988;4.644;2023-08-08T07:17:03;1.58;;;0.77;;
38629;SDS011;24384;51.988;4.644;2023-08-08T07:19:29;3.13;;;0.70;;
38629;SDS011;24384;51.988;4.644;2023-08-08T07:21:54;2.47;;;0.80;;
38629;SDS011;24384;51.988;4.644;2023-08-08T07:24:19;1.50;;;0.68;;
38629;SDS011;24384;51.988;4.644;2023-08-08T07:26:45;2.33;;;0.80;;
38629;SDS011;24384;51.988;4.644;2023-08-08T07:29:10;2.45;;;1.02;;
38629;SDS011;24384;51.988;4.644;2023-08-08T07:31:36;6.13;;;1.73;;
38629;SDS011;24384;51.988;4.644;2023-08-08T07:34:01;1.40;;;0.63;;
38629;SDS011;24384;51.988;4.644;2023-08-08T07:36:26;3.75;;;0.82;;
38629;SDS011;24384;51.988;4.644;2023-08-08T07:38:51;1.85;;;0.90;;
38629;SDS011;24384;51.988;4.644;2023-08-08T07:41:17;2.50;;;0.70;;
38629;SDS011;24384;51.988;4.644;2023-08-08T07:43:44;3.85;;;0.90;;
38629;SDS011;24384;51.988;4.644;2023-08-08T07:46:09;3.45;;;0.82;;
38629;SDS011;24384;51.988;4.644;2023-08-08T07:48:35;4.53;;;1.10;;
38629;SDS011;24384;51.988;4.644;2023-08-08T07:51:00;5.32;;;0.88;;
38629;SDS011;24384;51.988;4.644;2023-08-08T07:53:25;7.35;;;1.02;;
38629;SDS011;24384;51.988;4.644;2023-08-08T07:55:50;3.55;;;1.05;;
38629;SDS011;24384;51.988;4.644;2023-08-08T07:58:16;3.25;;;0.80;;
38629;SDS011;24384;51.988;4.644;2023-08-08T08:00:41;0.82;;;0.70;;
38629;SDS011;24384;51.988;4.644;2023-08-08T08:03:06;3.95;;;1.02;;
38629;SDS011;24384;51.988;4.644;2023-08-08T08:05:32;7.18;;;0.90;;
38629;SDS011;24384;51.988;4.644;2023-08-08T08:07:59;4.47;;;0.80;;
38629;SDS011;24384;51.988;4.644;2023-08-08T08:10:24;4.97;;;0.80;;
38629;SDS011;24384;51.988;4.644;2023-08-08T08:12:50;3.67;;;0.90;;
38629;SDS011;24384;51.988;4.644;2023-08-08T08:15:22;2.15;;;0.63;;
38629;SDS011;24384;51.988;4.644;2023-08-08T08:17:47;2.40;;;0.98;;
38629;SDS011;24384;51.988;4.644;2023-08-08T08:20:12;5.20;;;1.83;;
38629;SDS011;24384;51.988;4.644;2023-08-08T08:22:38;4.88;;;1.73;;
38629;SDS011;24384;51.988;4.644;2023-08-08T08:25:04;1.38;;;0.70;;
38629;SDS011;24384;51.988;4.644;2023-08-08T08:27:32;2.50;;;0.80;;
38629;SDS011;24384;51.988;4.644;2023-08-08T08:29:58;4.32;;;0.90;;
38629;SDS011;24384;51.988;4.644;2023-08-08T08:32:23;1.65;;;0.80;;
38629;SDS011;24384;51.988;4.644;2023-08-08T08:34:48;2.78;;;1.13;;
38629;SDS011;24384;51.988;4.644;2023-08-08T08:37:14;4.93;;;1.40;;
38629;SDS011;24384;51.988;4.644;2023-08-08T08:39:39;6.40;;;0.98;;
38629;SDS011;24384;51.988;4.644;2023-08-08T08:42:04;2.38;;;0.65;;
38629;SDS011;24384;51.988;4.644;2023-08-08T08:44:31;1.88;;;0.80;;
38629;SDS011;24384;51.988;4.644;2023-08-08T08:47:01;2.22;;;1.15;;
38629;SDS011;24384;51.988;4.644;2023-08-08T08:49:29;4.25;;;0.95;;
38629;SDS011;24384;51.988;4.644;2023-08-08T08:51:55;5.05;;;1.10;;
38629;SDS011;24384;51.988;4.644;2023-08-08T08:54:22;1.95;;;0.70;;
38629;SDS011;24384;51.988;4.644;2023-08-08T08:56:49;3.03;;;1.10;;
38629;SDS011;24384;51.988;4.644;2023-08-08T08:59:15;5.53;;;0.65;;
38629;SDS011;24384;51.988;4.644;2023-08-08T09:01:40;1.40;;;0.65;;
38629;SDS011;24384;51.988;4.644;2023-08-08T09:04:05;2.13;;;0.90;;
38629;SDS011;24384;51.988;4.644;2023-08-08T09:06:32;3.00;;;1.27;;
38629;SDS011;24384;51.988;4.644;2023-08-08T09:08:58;2.25;;;0.68;;
38629;SDS011;24384;51.988;4.644;2023-08-08T09:11:24;3.25;;;1.83;;
38629;SDS011;24384;51.988;4.644;2023-08-08T09:13:50;2.97;;;0.98;;
38629;SDS011;24384;51.988;4.644;2023-08-08T09:16:16;2.55;;;0.82;;
38629;SDS011;24384;51.988;4.644;2023-08-08T09:18:41;3.22;;;0.90;;
38629;SDS011;24384;51.988;4.644;2023-08-08T09:21:07;3.58;;;1.13;;
38629;SDS011;24384;51.988;4.644;2023-08-08T09:23:33;5.03;;;0.80;;
38629;SDS011;24384;51.988;4.644;2023-08-08T09:25:58;2.15;;;1.08;;
38629;SDS011;24384;51.988;4.644;2023-08-08T09:28:24;4.18;;;0.85;;
38629;SDS011;24384;51.988;4.644;2023-08-08T09:30:49;2.03;;;0.90;;
38629;SDS011;24384;51.988;4.644;2023-08-08T09:33:16;2.15;;;0.98;;
38629;SDS011;24384;51.988;4.644;2023-08-08T09:35:42;1.75;;;0.90;;
38629;SDS011;24384;51.988;4.644;2023-08-08T09:38:08;3.47;;;1.00;;
38629;SDS011;24384;51.988;4.644;2023-08-08T09:40:33;1.15;;;0.70;;
38629;SDS011;24384;51.988;4.644;2023-08-08T09:42:59;2.65;;;1.08;;
38629;SDS011;24384;51.988;4.644;2023-08-08T09:45:24;3.08;;;1.20;;
38629;SDS011;24384;51.988;4.644;2023-08-08T09:47:50;4.22;;;1.13;;
38629;SDS011;24384;51.988;4.644;2023-08-08T09:50:17;3.38;;;1.10;;
38629;SDS011;24384;51.988;4.644;2023-08-08T09:52:43;4.65;;;1.13;;
38629;SDS011;24384;51.988;4.644;2023-08-08T09:55:09;6.88;;;1.30;;
38629;SDS011;24384;51.988;4.644;2023-08-08T09:57:36;1.38;;;0.90;;
38629;SDS011;24384;51.988;4.644;2023-08-08T10:00:03;3.15;;;1.17;;
38629;SDS011;24384;51.988;4.644;2023-08-08T10:02:30;1.98;;;1.13;;
38629;SDS011;24384;51.988;4.644;2023-08-08T10:04:57;3.95;;;0.90;;
38629;SDS011;24384;51.988;4.644;2023-08-08T10:07:23;2.95;;;0.90;;
38629;SDS011;24384;51.988;4.644;2023-08-08T10:09:48;6.72;;;1.70;;
38629;SDS011;24384;51.988;4.644;2023-08-08T10:12:13;4.78;;;1.00;;
38629;SDS011;24384;51.988;4.644;2023-08-08T10:14:41;4.80;;;1.00;;
38629;SDS011;24384;51.988;4.644;2023-08-08T10:17:07;4.20;;;0.85;;
38629;SDS011;24384;51.988;4.644;2023-08-08T10:19:34;3.30;;;0.98;;
38629;SDS011;24384;51.988;4.644;2023-08-08T10:22:04;2.55;;;1.10;;
38629;SDS011;24384;51.988;4.644;2023-08-08T10:24:36;3.90;;;1.10;;
38629;SDS011;24384;51.988;4.644;2023-08-08T10:27:03;2.60;;;0.90;;
38629;SDS011;24384;51.988;4.644;2023-08-08T10:29:30;6.78;;;1.10;;
38629;SDS011;24384;51.988;4.644;2023-08-08T10:31:58;12.85;;;2.63;;
38629;SDS011;24384;51.988;4.644;2023-08-08T10:37:12;4.57;;;1.20;;
38629;SDS011;24384;51.988;4.644;2023-08-08T10:42:20;1.83;;;1.00;;
38629;SDS011;24384;51.988;4.644;2023-08-08T10:44:59;5.47;;;1.00;;
38629;SDS011;24384;51.988;4.644;2023-08-08T10:47:26;6.53;;;1.92;;
38629;SDS011;24384;51.988;4.644;2023-08-08T10:52:24;1.98;;;0.80;;
38629;SDS011;24384;51.988;4.644;2023-08-08T10:54:53;2.00;;;1.00;;
38629;SDS011;24384;51.988;4.644;2023-08-08T10:57:19;1.60;;;0.95;;
38629;SDS011;24384;51.988;4.644;2023-08-08T10:59:48;5.82;;;1.63;;
38629;SDS011;24384;51.988;4.644;2023-08-08T11:02:14;2.05;;;1.35;;
38629;SDS011;24384;51.988;4.644;2023-08-08T11:04:39;2.45;;;1.00;;
38629;SDS011;24384;51.988;4.644;2023-08-08T11:07:06;3.33;;;1.13;;
38629;SDS011;24384;51.988;4.644;2023-08-08T11:09:31;2.13;;;0.77;;
38629;SDS011;24384;51.988;4.644;2023-08-08T11:11:57;2.70;;;1.27;;
38629;SDS011;24384;51.988;4.644;2023-08-08T11:14:22;5.03;;;1.20;;
38629;SDS011;24384;51.988;4.644;2023-08-08T11:16:49;3.42;;;1.10;;
38629;SDS011;24384;51.988;4.644;2023-08-08T11:19:16;2.63;;;1.00;;
38629;SDS011;24384;51.988;4.644;2023-08-08T11:21:44;4.03;;;1.25;;
38629;SDS011;24384;51.988;4.644;2023-08-08T11:24:11;6.38;;;1.20;;
38629;SDS011;24384;51.988;4.644;2023-08-08T11:26:37;8.43;;;1.95;;
38629;SDS011;24384;51.988;4.644;2023-08-08T11:29:04;6.78;;;1.27;;
38629;SDS011;24384;51.988;4.644;2023-08-08T11:31:36;5.55;;;1.20;;
38629;SDS011;24384;51.988;4.644;2023-08-08T11:34:02;7.28;;;1.48;;
38629;SDS011;24384;51.988;4.644;2023-08-08T11:36:30;1.60;;;0.90;;
38629;SDS011;24384;51.988;4.644;2023-08-08T11:38:58;3.40;;;0.90;;
38629;SDS011;24384;51.988;4.644;2023-08-08T11:41:29;5.45;;;0.80;;
38629;SDS011;24384;51.988;4.644;2023-08-08T11:43:55;4.22;;;0.93;;
38629;SDS011;24384;51.988;4.644;2023-08-08T11:46:22;2.20;;;0.90;;
38629;SDS011;24384;51.988;4.644;2023-08-08T11:48:48;8.18;;;1.27;;
38629;SDS011;24384;51.988;4.644;2023-08-08T11:51:14;4.03;;;1.20;;
38629;SDS011;24384;51.988;4.644;2023-08-08T11:53:53;3.13;;;1.20;;
38629;SDS011;24384;51.988;4.644;2023-08-08T11:56:19;4.00;;;0.95;;
38629;SDS011;24384;51.988;4.644;2023-08-08T11:58:45;4.18;;;1.15;;
38629;SDS011;24384;51.988;4.644;2023-08-08T12:01:14;2.42;;;1.15;;
38629;SDS011;24384;51.988;4.644;2023-08-08T12:03:39;5.60;;;0.90;;
38629;SDS011;24384;51.988;4.644;2023-08-08T12:06:12;4.20;;;1.70;;
38629;SDS011;24384;51.988;4.644;2023-08-08T12:08:41;6.43;;;1.67;;
38629;SDS011;24384;51.988;4.644;2023-08-08T12:11:08;4.05;;;1.15;;
38629;SDS011;24384;51.988;4.644;2023-08-08T12:13:34;2.17;;;1.00;;
38629;SDS011;24384;51.988;4.644;2023-08-08T12:16:04;6.45;;;1.10;;
38629;SDS011;24384;51.988;4.644;2023-08-08T12:18:31;3.58;;;0.95;;
38629;SDS011;24384;51.988;4.644;2023-08-08T12:20:57;3.65;;;1.08;;
38629;SDS011;24384;51.988;4.644;2023-08-08T12:23:23;1.77;;;0.90;;
38629;SDS011;24384;51.988;4.644;2023-08-08T12:25:49;1.45;;;0.90;;
38629;SDS011;24384;51.988;4.644;2023-08-08T12:28:14;6.50;;;1.20;;
38629;SDS011;24384;51.988;4.644;2023-08-08T12:30:40;9.00;;;1.65;;
38629;SDS011;24384;51.988;4.644;2023-08-08T12:33:05;2.83;;;0.95;;
38629;SDS011;24384;51.988;4.644;2023-08-08T12:35:30;3.38;;;1.50;;
38629;SDS011;24384;51.988;4.644;2023-08-08T12:37:55;2.13;;;0.90;;
38629;SDS011;24384;51.988;4.644;2023-08-08T12:40:21;5.57;;;1.13;;
38629;SDS011;24384;51.988;4.644;2023-08-08T12:42:46;4.15;;;0.88;;
38629;SDS011;24384;51.988;4.644;2023-08-08T12:45:12;4.50;;;1.20;;
38629;SDS011;24384;51.988;4.644;2023-08-08T12:47:39;4.70;;;0.90;;
38629;SDS011;24384;51.988;4.644;2023-08-08T12:50:04;7.28;;;1.17;;
38629;SDS011;24384;51.988;4.644;2023-08-08T12:52:30;3.65;;;1.40;;
38629;SDS011;24384;51.988;4.644;2023-08-08T12:54:55;7.75;;;1.70;;
38629;SDS011;24384;51.988;4.644;2023-08-08T12:57:21;5.28;;;1.60;;
38629;SDS011;24384;51.988;4.644;2023-08-08T12:59:46;5.82;;;1.05;;
38629;SDS011;24384;51.988;4.644;2023-08-08T13:02:11;7.47;;;1.42;;
38629;SDS011;24384;51.988;4.644;2023-08-08T13:04:37;3.72;;;1.38;;
38629;SDS011;24384;51.988;4.644;2023-08-08T13:07:02;4.22;;;1.70;;
38629;SDS011;24384;51.988;4.644;2023-08-08T13:09:29;3.67;;;1.63;;
38629;SDS011;24384;51.988;4.644;2023-08-08T13:11:54;6.45;;;1.08;;
38629;SDS011;24384;51.988;4.644;2023-08-08T13:14:19;5.18;;;1.10;;
38629;SDS011;24384;51.988;4.644;2023-08-08T13:16:44;3.88;;;1.10;;
38629;SDS011;24384;51.988;4.644;2023-08-08T13:19:10;6.47;;;1.00;;
38629;SDS011;24384;51.988;4.644;2023-08-08T13:21:36;3.63;;;1.35;;
38629;SDS011;24384;51.988;4.644;2023-08-08T13:24:01;9.02;;;1.20;;
38629;SDS011;24384;51.988;4.644;2023-08-08T13:26:27;3.42;;;1.63;;
38629;SDS011;24384;51.988;4.644;2023-08-08T13:28:52;3.95;;;1.02;;
38629;SDS011;24384;51.988;4.644;2023-08-08T13:31:18;6.97;;;1.23;;
38629;SDS011;24384;51.988;4.644;2023-08-08T13:33:43;3.00;;;1.30;;
38629;SDS011;24384;51.988;4.644;2023-08-08T13:36:08;3.22;;;1.35;;
38629;SDS011;24384;51.988;4.644;2023-08-08T13:38:34;3.55;;;1.20;;
38629;SDS011;24384;51.988;4.644;2023-08-08T13:41:00;3.17;;;1.30;;
38629;SDS011;24384;51.988;4.644;2023-08-08T13:43:25;4.85;;;1.30;;
38629;SDS011;24384;51.988;4.644;2023-08-08T13:45:51;8.82;;;1.65;;
38629;SDS011;24384;51.988;4.644;2023-08-08T13:48:17;4.28;;;1.13;;
38629;SDS011;24384;51.988;4.644;2023-08-08T13:50:42;7.72;;;1.48;;
38629;SDS011;24384;51.988;4.644;2023-08-08T13:53:07;3.00;;;1.38;;
38629;SDS011;24384;51.988;4.644;2023-08-08T13:55:32;4.25;;;1.42;;
38629;SDS011;24384;51.988;4.644;2023-08-08T13:58:04;3.72;;;1.30;;
38629;SDS011;24384;51.988;4.644;2023-08-08T14:00:29;3.15;;;1.30;;
38629;SDS011;24384;51.988;4.644;2023-08-08T14:02:54;4.07;;;1.58;;
38629;SDS011;24384;51.988;4.644;2023-08-08T14:05:19;7.00;;;1.13;;
38629;SDS011;24384;51.988;4.644;2023-08-08T14:07:45;5.60;;;1.42;;
38629;SDS011;24384;51.988;4.644;2023-08-08T14:10:11;6.55;;;1.50;;
38629;SDS011;24384;51.988;4.644;2023-08-08T14:12:37;8.38;;;1.73;;
38629;SDS011;24384;51.988;4.644;2023-08-08T14:15:03;4.80;;;1.20;;
38629;SDS011;24384;51.988;4.644;2023-08-08T14:17:29;6.63;;;1.80;;
38629;SDS011;24384;51.988;4.644;2023-08-08T14:19:54;3.25;;;1.67;;
38629;SDS011;24384;51.988;4.644;2023-08-08T14:22:19;6.28;;;1.63;;
38629;SDS011;24384;51.988;4.644;2023-08-08T14:24:45;6.88;;;1.88;;
38629;SDS011;24384;51.988;4.644;2023-08-08T14:27:10;4.40;;;1.40;;
38629;SDS011;24384;51.988;4.644;2023-08-08T14:29:35;2.78;;;1.30;;
38629;SDS011;24384;51.988;4.644;2023-08-08T14:32:00;7.40;;;1.63;;
38629;SDS011;24384;51.988;4.644;2023-08-08T14:34:29;11.88;;;1.60;;
38629;SDS011;24384;51.988;4.644;2023-08-08T14:36:55;2.17;;;1.15;;
38629;SDS011;24384;51.988;4.644;2023-08-08T14:39:22;7.65;;;1.75;;
38629;SDS011;24384;51.988;4.644;2023-08-08T14:41:47;2.78;;;1.80;;
38629;SDS011;24384;51.988;4.644;2023-08-08T14:44:12;2.15;;;1.08;;
38629;SDS011;24384;51.988;4.644;2023-08-08T14:46:38;2.10;;;1.08;;